createdAt,value
2023-04-24T00:09:12.026Z,9.70
2023-04-24T00:15:34.608Z,9.70
2023-04-24T00:25:40.295Z,9.70
2023-04-24T00:36:27.078Z,9.70
2023-04-24T00:47:09.233Z,9.70
2023-04-24T00:52:43.565Z,9.70
2023-04-24T03:01:32.230Z,8.90
2023-04-24T03:07:21.617Z,8.90
2023-04-24T03:24:20.413Z,8.80
2023-04-24T04:30:30.421Z,8.60
2023-04-24T04:35:33.495Z,8.60
2023-04-24T04:40:35.518Z,8.60
2023-04-24T04:45:40.134Z,8.60
2023-04-24T04:50:42.001Z,8.60
2023-04-24T04:55:43.846Z,8.50
2023-04-24T05:00:46.880Z,8.50
2023-04-24T05:05:48.797Z,8.50
2023-04-24T05:10:50.910Z,8.50
2023-04-24T05:15:54.090Z,8.50
2023-04-24T05:20:58.613Z,8.40
2023-04-24T05:26:00.663Z,8.40
2023-04-24T05:31:03.400Z,8.40
2023-04-24T05:36:06.568Z,8.30
2023-04-24T05:41:08.484Z,8.30
2023-04-24T05:46:10.539Z,8.30
2023-04-24T05:51:12.497Z,8.30
2023-04-24T05:56:14.367Z,8.30
2023-04-24T06:01:16.828Z,8.20
2023-04-24T06:06:18.829Z,8.20
2023-04-24T06:11:20.801Z,8.20
2023-04-24T06:16:22.747Z,8.20
2023-04-24T06:21:24.837Z,8.20
2023-04-24T06:26:27.580Z,8.10
2023-04-24T06:31:29.701Z,8.10
2023-04-24T06:36:32.278Z,8.10
2023-04-24T06:41:34.277Z,8.10
2023-04-24T06:46:36.521Z,8.10
2023-04-24T06:51:38.674Z,8.10
2023-04-24T06:56:40.658Z,8.10
2023-04-24T07:01:42.695Z,8.10
2023-04-24T07:06:47.040Z,8.20
2023-04-24T07:11:49.462Z,8.20
2023-04-24T07:16:51.338Z,8.10
2023-04-24T07:21:54.640Z,8.10
2023-04-24T07:26:56.571Z,8.00
2023-04-24T07:31:58.643Z,8.00
2023-04-24T07:37:00.715Z,8.00
2023-04-24T07:42:03.352Z,8.10
2023-04-24T07:47:05.318Z,8.00
2023-04-24T07:52:07.276Z,8.10
2023-04-24T07:57:09.405Z,8.10
2023-04-24T08:02:12.082Z,8.10
2023-04-24T08:07:14.189Z,8.10
2023-04-24T08:12:16.093Z,8.10
2023-04-24T08:17:18.757Z,8.10
2023-04-24T08:22:20.816Z,8.10
2023-04-24T08:27:22.935Z,8.10
2023-04-24T08:32:25.058Z,8.20
2023-04-24T08:37:28.344Z,8.30
2023-04-24T08:42:33.641Z,8.40
2023-04-24T08:47:36.451Z,8.30
2023-04-24T08:52:38.366Z,8.20
2023-04-24T08:57:41.471Z,8.10
2023-04-24T09:02:44.866Z,8.10
2023-04-24T09:07:55.405Z,8.20
2023-04-24T09:12:59.217Z,8.20
2023-04-24T09:18:01.652Z,8.10
2023-04-24T09:23:03.532Z,8.10
2023-04-24T09:28:07.660Z,8.10
2023-04-24T09:33:16.687Z,7.90
2023-04-24T09:38:18.648Z,8.00
2023-04-24T09:43:20.558Z,8.10
2023-04-24T09:48:31.868Z,8.30
2023-04-24T09:53:33.968Z,8.60
2023-04-24T09:58:37.453Z,8.80
2023-04-24T10:03:39.416Z,8.70
2023-04-24T10:08:41.473Z,8.60
2023-04-24T10:13:43.507Z,8.40
2023-04-24T10:18:45.831Z,8.20
2023-04-24T10:23:47.834Z,8.10
2023-04-24T10:28:49.691Z,8.20
2023-04-24T10:33:52.881Z,8.20
2023-04-24T10:38:57.013Z,8.30
2023-04-24T10:44:11.902Z,8.40
2023-04-24T10:49:13.833Z,8.50
2023-04-24T10:54:30.214Z,8.50
2023-04-24T10:59:36.184Z,8.40
2023-04-24T11:04:38.053Z,8.40
2023-04-24T11:09:44.225Z,8.30
2023-04-24T11:14:59.467Z,8.30
2023-04-24T11:20:15.352Z,8.30
2023-04-24T11:25:32.920Z,8.40
2023-04-24T11:30:35.091Z,8.50
2023-04-24T11:35:40.750Z,8.60
2023-04-24T11:40:42.982Z,8.70
2023-04-24T11:45:49.815Z,8.80
2023-04-24T11:50:51.850Z,8.90
2023-04-24T11:55:53.737Z,9.10
2023-04-24T12:00:59.423Z,9.10
2023-04-24T12:06:09.419Z,9.10
2023-04-24T12:11:11.684Z,9.10
2023-04-24T12:16:13.910Z,9.20
2023-04-24T12:21:28.319Z,9.30
2023-04-24T12:26:30.316Z,9.30
2023-04-24T12:31:33.433Z,9.70
2023-04-24T12:36:36.470Z,10.30
2023-04-24T12:41:38.340Z,10.50
2023-04-24T12:46:40.262Z,10.50
2023-04-24T12:51:42.265Z,10.10
2023-04-24T12:56:44.056Z,9.70
2023-04-24T13:01:46.024Z,9.70
2023-04-24T13:06:47.905Z,9.70
2023-04-24T13:11:50.944Z,10.10
2023-04-24T13:16:53.083Z,10.30
2023-04-24T13:21:56.808Z,10.40
2023-04-24T13:26:58.689Z,10.40
2023-04-24T13:32:00.833Z,10.10
2023-04-24T13:37:04.691Z,10.00
2023-04-24T13:42:06.705Z,10.10
2023-04-24T13:47:08.555Z,9.80
2023-04-24T13:52:11.615Z,9.60
2023-04-24T13:57:15.095Z,9.50
2023-04-24T14:02:17.012Z,9.60
2023-04-24T14:07:18.909Z,9.60
2023-04-24T14:12:20.994Z,9.60
2023-04-24T14:17:22.881Z,10.30
2023-04-24T14:22:24.859Z,10.70
2023-04-24T14:27:27.646Z,10.80
2023-04-24T14:32:29.621Z,11.10
2023-04-24T14:37:31.605Z,11.60
2023-04-24T14:42:33.990Z,11.70
2023-04-24T14:47:36.502Z,12.10
2023-04-24T14:52:38.632Z,12.50
2023-04-24T14:57:40.966Z,12.60
2023-04-24T15:02:43.408Z,12.90
2023-04-24T15:07:46.474Z,13.20
2023-04-24T15:12:48.364Z,13.00
2023-04-24T15:17:50.290Z,12.40
2023-04-24T15:22:52.208Z,11.90
2023-04-24T15:27:54.119Z,11.50
2023-04-24T15:32:56.140Z,11.90
2023-04-24T15:37:58.077Z,12.50
2023-04-24T15:43:00.012Z,12.40
2023-04-24T15:48:01.995Z,12.10
2023-04-24T15:53:04.087Z,11.60
2023-04-24T15:58:05.984Z,11.30
2023-04-24T16:03:10.079Z,11.00
2023-04-24T16:08:14.201Z,11.00
2023-04-24T16:13:18.615Z,11.10
2023-04-24T16:18:20.503Z,11.10
2023-04-24T16:23:22.346Z,11.00
2023-04-24T16:28:24.148Z,10.90
2023-04-24T16:33:26.561Z,10.80
2023-04-24T16:38:28.439Z,10.70
2023-04-24T16:43:30.368Z,10.70
2023-04-24T16:48:33.180Z,10.80
2023-04-24T16:53:35.045Z,10.90
2023-04-24T16:58:36.930Z,10.70
2023-04-24T17:03:38.983Z,10.60
2023-04-24T17:08:41.006Z,10.50
2023-04-24T17:13:43.023Z,10.60
2023-04-24T17:18:44.912Z,10.50
2023-04-24T17:23:46.815Z,10.40
2023-04-24T17:28:48.967Z,10.30
2023-04-24T17:33:53.744Z,10.30
2023-04-24T17:38:55.735Z,10.20
2023-04-24T17:43:57.736Z,10.20
2023-04-24T17:48:59.769Z,10.10
2023-04-24T17:54:01.691Z,10.00
2023-04-24T17:59:03.535Z,9.90
2023-04-24T18:04:05.600Z,9.70
2023-04-24T18:09:08.565Z,9.60
2023-04-24T18:14:10.466Z,9.50
2023-04-24T18:19:12.376Z,9.40
2023-04-24T18:24:14.378Z,9.30
2023-04-24T18:29:16.258Z,9.20
2023-04-24T18:34:18.515Z,9.10
2023-04-24T18:39:22.866Z,9.00
2023-04-24T18:44:26.083Z,8.90
2023-04-24T18:49:27.908Z,8.80
2023-04-24T18:54:29.778Z,8.70
2023-04-24T18:59:31.589Z,8.60
2023-04-24T19:04:33.975Z,8.60
2023-04-24T19:09:37.209Z,8.50
2023-04-24T19:14:39.052Z,8.40
2023-04-24T19:19:40.974Z,8.40
2023-04-24T19:30:54.373Z,8.30
2023-04-24T19:36:58.556Z,8.30
2023-04-24T19:48:36.678Z,8.20
2023-04-24T19:53:55.837Z,8.10
2023-04-24T19:59:27.542Z,8.10
2023-04-24T20:11:35.420Z,8.00
2023-04-24T20:17:01.166Z,7.90
2023-04-24T20:28:34.144Z,7.80
2023-04-24T20:39:42.353Z,7.60
2023-04-24T20:45:30.596Z,7.60
2023-04-24T20:50:57.840Z,7.50
2023-04-24T20:56:26.850Z,7.50
2023-04-24T21:02:28.352Z,7.40
2023-04-24T21:13:06.883Z,7.30
2023-04-24T21:18:18.696Z,7.20
2023-04-24T21:23:36.006Z,7.20
2023-04-24T21:29:43.675Z,7.20
2023-04-24T21:35:16.771Z,7.10
2023-04-24T21:40:54.283Z,7.10
2023-04-24T21:46:11.594Z,7.00
2023-04-24T21:57:04.436Z,7.00
2023-04-24T22:02:24.019Z,7.10
2023-04-24T22:08:31.866Z,7.00
2023-04-24T22:13:18.099Z,7.00
2023-04-24T22:18:46.618Z,7.10
2023-04-24T22:23:57.073Z,7.10
2023-04-24T22:29:06.533Z,7.10
2023-04-24T22:34:36.897Z,7.10
2023-04-24T22:39:55.389Z,7.10
2023-04-24T22:51:27.527Z,7.10
2023-04-24T22:56:27.481Z,7.10
2023-04-24T23:01:44.154Z,7.10
2023-04-24T23:07:27.457Z,7.10
2023-04-24T23:13:02.247Z,7.10
2023-04-24T23:18:38.158Z,7.10
2023-04-24T23:24:24.459Z,7.10
2023-04-24T23:29:55.316Z,7.20
2023-04-24T23:35:06.978Z,7.10
2023-04-24T23:40:32.044Z,7.10
2023-04-24T23:46:04.392Z,7.10
2023-04-24T23:51:12.068Z,7.20
2023-04-24T23:56:25.651Z,7.10
